Time;durP1;ratioP1;P1;durP2;ratioP2;P2;SDS_P1;SDS_P2;PMS_P1;PMS_P2;Temp;Humidity;BMP_temperature;BMP_pressure;BME280_temperature;BME280_humidity;BME280_pressure;Samples;Min_cycle;Max_cycle;Signal;HPM_P1;HPM_P2
2021/09/27 00:00:29;;;;;;;7.00;4.90;;;16.70;99.90;;;;;;5001999;28;20056;-75
2021/09/27 00:02:55;;;;;;;9.57;4.32;;;16.70;99.90;;;;;;4983646;28;20031;-75
2021/09/27 00:05:22;;;;;;;11.73;5.30;;;16.80;99.90;;;;;;5000795;28;20112;-75
2021/09/27 00:07:48;;;;;;;10.25;5.00;;;16.80;99.90;;;;;;5000896;28;20027;-75
2021/09/27 00:10:27;;;;;;;7.30;4.05;;;16.80;99.90;;;;;;4983766;28;20080;-75
2021/09/27 00:12:53;;;;;;;11.27;5.60;;;16.80;99.90;;;;;;4983399;28;20479;-75
2021/09/27 00:15:29;;;;;;;9.07;5.10;;;16.80;99.90;;;;;;4983521;28;20023;-75
2021/09/27 00:17:54;;;;;;;11.85;5.65;;;16.70;99.90;;;;;;4983425;28;20030;-75
2021/09/27 00:20:20;;;;;;;8.57;4.88;;;16.80;99.90;;;;;;4983978;28;20104;-75
2021/09/27 00:22:48;;;;;;;8.90;5.20;;;16.70;99.90;;;;;;5000669;28;20084;-75
2021/09/27 00:25:16;;;;;;;29.80;6.88;;;16.70;99.90;;;;;;4983272;28;20368;-75
2021/09/27 00:27:42;;;;;;;13.07;5.75;;;16.60;99.90;;;;;;5000898;28;20110;-75
2021/09/27 00:30:08;;;;;;;10.23;4.90;;;16.60;99.90;;;;;;5000547;28;20487;-75
2021/09/27 00:32:34;;;;;;;8.23;4.43;;;16.60;99.90;;;;;;5000696;28;20070;-75
2021/09/27 00:35:01;;;;;;;7.85;5.32;;;16.60;99.90;;;;;;5000485;28;20027;-75
2021/09/27 00:37:27;;;;;;;10.27;4.78;;;16.50;99.90;;;;;;5000827;28;20022;-75
2021/09/27 00:39:52;;;;;;;8.48;5.50;;;16.50;99.90;;;;;;4982996;28;20018;-75
2021/09/27 00:42:18;;;;;;;8.77;4.68;;;16.40;99.90;;;;;;5000392;28;20543;-75
2021/09/27 00:44:44;;;;;;;10.15;5.35;;;16.40;99.90;;;;;;5000358;28;20498;-75
2021/09/27 00:47:10;;;;;;;8.85;4.88;;;16.30;99.90;;;;;;5000383;28;20392;-75
2021/09/27 00:49:36;;;;;;;11.93;5.45;;;16.20;99.90;;;;;;5000044;28;20048;-75
2021/09/27 00:52:02;;;;;;;9.38;5.18;;;16.20;99.90;;;;;;5000083;28;20108;-76
2021/09/27 00:54:32;;;;;;;16.38;5.22;;;16.10;99.90;;;;;;5000238;28;20030;-76
2021/09/27 00:57:07;;;;;;;10.50;5.72;;;16.10;99.90;;;;;;4982488;28;20085;-75
2021/09/27 00:59:35;;;;;;;8.25;4.82;;;16.10;99.90;;;;;;5000002;28;20073;-75
2021/09/27 01:02:00;;;;;;;11.93;6.13;;;16.10;99.90;;;;;;4999970;28;20434;-75
2021/09/27 01:04:26;;;;;;;14.73;5.57;;;16.00;99.90;;;;;;4999670;28;20026;-75
2021/09/27 01:07:10;;;;;;;8.75;5.60;;;16.00;99.90;;;;;;4999818;28;20034;-75
2021/09/27 01:10:05;;;;;;;10.23;5.72;;;15.90;99.90;;;;;;4982532;28;20368;-75
2021/09/27 01:13:22;;;;;;;11.27;5.63;;;15.80;99.90;;;;;;5000221;28;20038;-75
2021/09/27 01:16:17;;;;;;;10.07;4.95;;;15.80;99.90;;;;;;4971236;28;20039;-75
2021/09/27 01:19:20;;;;;;;9.00;5.03;;;15.70;99.90;;;;;;4982049;28;20023;-75
2021/09/27 01:22:08;;;;;;;10.68;5.63;;;15.70;99.90;;;;;;4999735;28;20030;-75
2021/09/27 01:25:11;;;;;;;8.40;5.15;;;15.70;99.90;;;;;;4999805;28;20107;-76
2021/09/27 01:27:46;;;;;;;11.73;5.75;;;15.60;99.90;;;;;;4999904;28;20092;-76
2021/09/27 01:30:21;;;;;;;9.50;5.35;;;15.50;99.90;;;;;;4999686;28;20027;-76
2021/09/27 01:32:56;;;;;;;10.25;5.32;;;15.50;99.90;;;;;;5000016;28;20034;-76
2021/09/27 01:35:45;;;;;;;11.73;5.78;;;15.50;99.90;;;;;;4999285;28;20018;-76
2021/09/27 01:38:38;;;;;;;10.77;4.97;;;15.40;99.90;;;;;;4999382;28;20023;-76
2021/09/27 01:41:42;;;;;;;15.63;7.05;;;15.50;99.90;;;;;;4982087;28;20377;-76
2021/09/27 01:44:48;;;;;;;9.30;4.90;;;15.40;99.90;;;;;;4977462;28;20537;-75
2021/09/27 01:47:23;;;;;;;12.75;5.40;;;15.40;99.90;;;;;;4998707;28;20399;-76
2021/09/27 01:50:09;;;;;;;8.80;5.35;;;15.40;99.90;;;;;;4999954;28;20427;-76
2021/09/27 01:52:46;;;;;;;10.55;5.68;;;15.30;99.90;;;;;;4981757;28;20030;-76
2021/09/27 01:55:19;;;;;;;15.25;6.18;;;15.40;99.90;;;;;;4999184;28;20029;-76
2021/09/27 01:58:04;;;;;;;11.40;6.43;;;15.30;99.90;;;;;;4981586;28;20030;-75
2021/09/27 02:00:37;;;;;;;10.23;5.88;;;15.30;99.90;;;;;;4981653;28;20019;-76
2021/09/27 02:03:18;;;;;;;12.95;6.22;;;15.30;99.90;;;;;;4981582;28;20031;-76
2021/09/27 02:06:00;;;;;;;12.25;6.00;;;15.30;99.90;;;;;;4998987;28;20035;-76
2021/09/27 02:08:32;;;;;;;11.98;5.80;;;15.20;99.90;;;;;;4981989;28;20026;-75
2021/09/27 02:11:17;;;;;;;16.30;6.45;;;15.20;99.90;;;;;;4998889;28;20113;-75
2021/09/27 02:14:13;;;;;;;16.35;7.82;;;15.20;99.90;;;;;;4999080;28;20097;-75
2021/09/27 02:16:56;;;;;;;14.32;6.22;;;15.20;99.90;;;;;;4973283;28;20128;-75
2021/09/27 02:19:42;;;;;;;11.52;6.18;;;15.10;99.90;;;;;;4999362;28;20456;-76
2021/09/27 02:22:27;;;;;;;12.60;5.28;;;15.10;99.90;;;;;;4977391;28;20072;-76
2021/09/27 02:25:10;;;;;;;11.63;6.15;;;15.00;99.90;;;;;;4981424;28;20089;-75
2021/09/27 02:27:36;;;;;;;10.02;6.07;;;15.10;99.90;;;;;;4980932;28;20026;-75
2021/09/27 02:30:04;;;;;;;11.93;6.20;;;15.10;99.90;;;;;;4998571;28;20050;-76
2021/09/27 02:32:50;;;;;;;10.85;6.25;;;15.00;99.90;;;;;;4998540;28;20125;-75
2021/09/27 02:35:29;;;;;;;12.27;6.35;;;15.10;99.90;;;;;;4980710;28;20094;-76
2021/09/27 02:38:03;;;;;;;18.25;7.63;;;15.10;99.90;;;;;;4998181;28;20110;-76
2021/09/27 02:40:42;;;;;;;14.50;5.85;;;15.10;99.90;;;;;;4981013;28;20023;-76
2021/09/27 02:43:10;;;;;;;10.95;6.80;;;15.10;99.90;;;;;;4997873;28;20038;-75
2021/09/27 02:45:37;;;;;;;12.73;6.47;;;15.00;99.90;;;;;;4998586;28;20430;-75
2021/09/27 02:48:32;;;;;;;11.23;6.65;;;15.00;99.90;;;;;;4980698;28;20019;-75
2021/09/27 02:50:58;;;;;;;13.50;6.57;;;15.00;99.90;;;;;;4997944;28;20114;-75
2021/09/27 02:53:23;;;;;;;11.60;7.15;;;15.00;99.90;;;;;;4998446;28;20058;-75
2021/09/27 02:56:08;;;;;;;12.43;6.65;;;15.00;99.90;;;;;;4980366;28;20472;-75
2021/09/27 02:58:57;;;;;;;13.48;6.95;;;15.00;99.90;;;;;;4998112;28;20483;-75
2021/09/27 03:01:47;;;;;;;14.10;7.13;;;15.00;99.90;;;;;;4997967;28;20042;-75
2021/09/27 03:04:21;;;;;;;16.60;7.60;;;15.00;99.90;;;;;;4997963;28;20023;-75
2021/09/27 03:07:02;;;;;;;14.65;7.35;;;14.90;99.90;;;;;;4997530;28;20034;-76
2021/09/27 03:09:28;;;;;;;15.52;6.72;;;14.90;99.90;;;;;;4980414;28;20080;-76
2021/09/27 03:12:06;;;;;;;15.38;7.20;;;15.00;99.90;;;;;;4998533;28;20456;-75
2021/09/27 03:14:57;;;;;;;14.10;6.35;;;15.00;99.90;;;;;;4980793;28;20070;-76
2021/09/27 03:17:48;;;;;;;14.55;7.60;;;15.00;99.90;;;;;;4997872;28;20027;-76
2021/09/27 03:20:55;;;;;;;15.50;7.35;;;14.90;99.90;;;;;;4997702;28;20357;-75
2021/09/27 03:23:58;;;;;;;12.88;6.53;;;14.90;99.90;;;;;;4980297;28;20471;-75
2021/09/27 03:26:43;;;;;;;14.25;7.20;;;14.90;99.90;;;;;;4997579;28;20034;-74
2021/09/27 03:29:30;;;;;;;13.98;6.30;;;14.90;99.90;;;;;;4997941;28;20100;-75
2021/09/27 03:32:21;;;;;;;17.67;7.18;;;14.90;99.90;;;;;;4997399;28;20033;-75
2021/09/27 03:35:01;;;;;;;15.15;7.90;;;14.90;99.90;;;;;;4997689;28;20033;-75
2021/09/27 03:37:45;;;;;;;14.32;7.82;;;15.00;99.90;;;;;;4997918;28;20034;-75
2021/09/27 03:40:14;;;;;;;21.23;7.38;;;15.00;99.90;;;;;;4980146;28;20025;-75
2021/09/27 03:42:56;;;;;;;12.98;7.05;;;15.10;99.90;;;;;;4997301;28;20022;-75
2021/09/27 03:45:30;;;;;;;12.75;7.15;;;15.10;99.90;;;;;;4980014;28;20065;-75
2021/09/27 03:48:13;;;;;;;15.13;7.43;;;15.10;99.90;;;;;;4997526;28;20031;-75
2021/09/27 03:50:49;;;;;;;12.23;6.85;;;15.20;99.90;;;;;;4979955;28;20049;-75
2021/09/27 03:53:39;;;;;;;12.98;7.13;;;15.20;99.90;;;;;;4980141;28;20038;-75
2021/09/27 03:56:13;;;;;;;15.77;8.05;;;15.20;99.90;;;;;;4998008;28;20034;-75
2021/09/27 03:58:57;;;;;;;17.15;7.22;;;15.20;99.90;;;;;;4998175;28;20023;-75
2021/09/27 04:01:37;;;;;;;15.38;7.50;;;15.20;99.90;;;;;;4979851;28;20026;-75
2021/09/27 04:04:27;;;;;;;14.13;6.85;;;15.20;99.90;;;;;;4997178;28;20037;-75
2021/09/27 04:07:15;;;;;;;15.63;7.70;;;15.10;99.90;;;;;;4980084;28;20113;-74
2021/09/27 04:10:17;;;;;;;14.90;7.40;;;15.10;99.90;;;;;;4997794;28;20041;-74
2021/09/27 04:13:16;;;;;;;15.40;6.95;;;15.00;99.90;;;;;;4979810;28;20269;-74
2021/09/27 04:16:00;;;;;;;14.43;7.45;;;15.00;99.90;;;;;;4979693;28;20034;-75
2021/09/27 04:19:25;;;;;;;13.73;7.30;;;15.00;99.90;;;;;;4997079;28;20471;-75
2021/09/27 04:22:12;;;;;;;15.90;7.53;;;15.00;99.90;;;;;;4940654;29;20034;-75
2021/09/27 04:24:59;;;;;;;16.38;8.20;;;15.00;99.90;;;;;;4956566;29;20393;-74
2021/09/27 04:27:24;;;;;;;19.38;8.27;;;14.90;99.90;;;;;;4993182;28;20038;-74
2021/09/27 04:30:11;;;;;;;16.52;7.78;;;14.90;99.90;;;;;;4996767;28;20038;-75
2021/09/27 04:33:01;;;;;;;17.15;8.93;;;14.90;99.90;;;;;;4997001;28;20030;-75
2021/09/27 04:35:35;;;;;;;16.75;8.38;;;14.80;99.90;;;;;;5001104;28;20034;-75
2021/09/27 04:38:04;;;;;;;19.98;8.45;;;14.90;99.90;;;;;;5000782;28;20026;-75
2021/09/27 04:40:57;;;;;;;16.63;8.45;;;14.80;99.90;;;;;;5015556;28;20094;-75
2021/09/27 04:44:05;;;;;;;16.50;8.52;;;14.80;99.90;;;;;;4982529;28;20022;-75
2021/09/27 04:47:01;;;;;;;19.92;8.52;;;14.80;99.90;;;;;;5000006;28;20034;-75
2021/09/27 04:49:52;;;;;;;17.10;8.50;;;14.80;99.90;;;;;;4976164;28;20406;-75
2021/09/27 04:52:40;;;;;;;18.02;9.10;;;14.80;99.90;;;;;;5000786;28;20018;-75
2021/09/27 04:55:45;;;;;;;19.98;8.40;;;14.80;99.90;;;;;;4982616;28;20031;-75
2021/09/27 04:58:25;;;;;;;17.92;8.52;;;14.80;99.90;;;;;;4959289;28;20020;-74
2021/09/27 05:01:09;;;;;;;21.60;9.25;;;14.80;99.90;;;;;;4992170;28;20372;-75
2021/09/27 05:04:22;;;;;;;20.67;8.93;;;14.90;99.90;;;;;;4996348;28;20106;-75
2021/09/27 05:07:09;;;;;;;16.88;8.18;;;14.90;99.90;;;;;;4955324;28;20039;-75
2021/09/27 05:09:57;;;;;;;16.35;7.82;;;14.90;99.90;;;;;;4939351;29;20070;-75
2021/09/27 05:12:52;;;;;;;22.55;9.00;;;14.80;99.90;;;;;;4964139;28;20048;-75
2021/09/27 05:15:41;;;;;;;18.85;8.93;;;14.80;99.90;;;;;;4996239;28;20045;-75
2021/09/27 05:18:25;;;;;;;17.52;8.88;;;14.80;99.90;;;;;;4996071;28;20383;-75
2021/09/27 05:21:05;;;;;;;22.02;8.98;;;14.80;99.90;;;;;;4996661;28;20622;-75
2021/09/27 05:24:05;;;;;;;19.40;9.32;;;14.70;99.90;;;;;;4996068;28;20049;-76
2021/09/27 05:26:52;;;;;;;18.00;8.82;;;14.80;99.90;;;;;;4995924;28;20110;-76
2021/09/27 05:29:33;;;;;;;15.75;8.32;;;14.80;99.90;;;;;;4978448;28;20448;-74
2021/09/27 05:32:23;;;;;;;17.52;8.95;;;14.80;99.90;;;;;;4996061;28;20026;-74
2021/09/27 05:35:12;;;;;;;21.05;8.82;;;14.80;99.90;;;;;;4978343;28;20031;-75
2021/09/27 05:38:04;;;;;;;18.75;8.98;;;14.80;99.90;;;;;;4995597;28;20089;-74
2021/09/27 05:40:29;;;;;;;17.67;8.27;;;14.80;99.90;;;;;;4995953;28;20404;-74
2021/09/27 05:43:43;;;;;;;23.40;8.48;;;14.90;99.90;;;;;;4995507;28;20112;-74
2021/09/27 05:46:44;;;;;;;20.83;9.02;;;14.90;99.90;;;;;;4956252;28;20038;-74
2021/09/27 05:49:23;;;;;;;17.17;8.35;;;14.90;99.90;;;;;;4995390;28;20022;-74
2021/09/27 05:51:56;;;;;;;22.42;9.43;;;15.00;99.90;;;;;;4978013;28;20030;-74
2021/09/27 05:54:54;;;;;;;18.70;8.68;;;15.10;99.90;;;;;;4995179;28;20109;-74
2021/09/27 05:57:29;;;;;;;17.23;8.80;;;15.10;99.90;;;;;;4976733;28;20050;-75
2021/09/27 06:00:09;;;;;;;20.85;9.35;;;15.10;99.90;;;;;;4993297;28;20034;-75
2021/09/27 06:02:37;;;;;;;18.23;8.98;;;15.20;99.90;;;;;;4977768;28;20020;-75
2021/09/27 06:05:23;;;;;;;16.92;8.88;;;15.20;99.90;;;;;;4977845;28;20030;-75
2021/09/27 06:08:09;;;;;;;16.45;7.82;;;15.20;99.90;;;;;;4995150;28;20034;-74
2021/09/27 06:11:07;;;;;;;24.58;8.60;;;15.20;99.90;;;;;;4977623;28;20030;-74
2021/09/27 06:13:35;;;;;;;16.40;7.72;;;15.30;99.90;;;;;;4958164;28;20488;-75
2021/09/27 06:16:15;;;;;;;18.00;8.27;;;15.30;99.90;;;;;;4994918;28;20046;-75
2021/09/27 06:19:00;;;;;;;21.60;8.55;;;15.40;99.90;;;;;;4994347;28;20550;-74
2021/09/27 06:22:03;;;;;;;18.42;8.95;;;15.40;99.90;;;;;;4994875;28;20031;-74
2021/09/27 06:25:06;;;;;;;17.42;8.73;;;15.50;99.90;;;;;;4977872;28;20030;-75
2021/09/27 06:28:05;;;;;;;18.70;7.93;;;15.60;99.90;;;;;;4994710;28;20394;-74
2021/09/27 06:30:55;;;;;;;21.75;9.20;;;15.60;99.90;;;;;;4994831;28;20455;-74
2021/09/27 06:33:43;;;;;;;19.30;7.88;;;15.70;99.90;;;;;;4977568;28;20089;-74
2021/09/27 06:36:14;;;;;;;17.70;8.10;;;15.80;99.90;;;;;;4994481;28;20027;-74
2021/09/27 06:38:41;;;;;;;16.02;8.00;;;15.90;99.90;;;;;;4977163;28;20018;-74
2021/09/27 06:41:17;;;;;;;16.92;7.65;;;16.00;99.90;;;;;;4994679;28;20435;-75
2021/09/27 06:43:43;;;;;;;19.83;7.18;;;16.10;99.90;;;;;;4994410;28;20026;-74
2021/09/27 06:46:09;;;;;;;15.43;8.20;;;16.20;99.90;;;;;;4994598;28;20030;-78
2021/09/27 06:48:35;;;;;;;15.80;8.02;;;16.20;99.90;;;;;;4977016;28;20023;-74
2021/09/27 06:51:01;;;;;;;16.60;7.95;;;16.30;99.90;;;;;;4994650;28;20064;-75
2021/09/27 06:53:29;;;;;;;19.63;8.57;;;16.30;99.90;;;;;;4994864;28;20370;-75
2021/09/27 06:55:56;;;;;;;15.30;7.50;;;16.40;99.90;;;;;;4994025;28;20034;-75
2021/09/27 06:58:23;;;;;;;15.80;7.35;;;16.40;99.90;;;;;;4994175;28;20026;-74
2021/09/27 07:00:51;;;;;;;16.77;7.78;;;16.50;99.90;;;;;;5009526;28;20033;-75
2021/09/27 07:03:16;;;;;;;12.63;6.32;;;16.60;99.90;;;;;;4994135;28;20070;-75
2021/09/27 07:05:42;;;;;;;14.98;6.75;;;16.70;99.90;;;;;;4976765;28;20522;-74
2021/09/27 07:08:08;;;;;;;15.23;6.22;;;16.70;99.90;;;;;;4994057;28;20102;-74
2021/09/27 07:10:33;;;;;;;13.98;6.00;;;16.70;99.90;;;;;;4994227;28;20029;-74
2021/09/27 07:12:59;;;;;;;14.70;6.25;;;16.70;99.90;;;;;;4976696;28;20117;-75
2021/09/27 07:15:24;;;;;;;17.58;7.53;;;16.70;99.90;;;;;;4976609;28;20084;-75
2021/09/27 07:17:50;;;;;;;14.95;6.82;;;16.80;99.90;;;;;;4994078;28;20022;-75
2021/09/27 07:20:21;;;;;;;15.45;6.97;;;16.80;99.90;;;;;;4976574;28;20019;-75
2021/09/27 07:22:47;;;;;;;12.80;6.72;;;16.80;99.90;;;;;;4976600;28;20058;-74
2021/09/27 07:25:14;;;;;;;14.30;7.15;;;16.90;99.90;;;;;;4976567;28;20018;-74
2021/09/27 07:27:39;;;;;;;15.57;7.55;;;16.90;99.90;;;;;;4976396;28;20169;-75
2021/09/27 07:30:09;;;;;;;13.52;7.35;;;17.00;99.90;;;;;;4976548;28;20483;-75
2021/09/27 07:32:35;;;;;;;12.60;6.93;;;17.00;99.90;;;;;;4976728;28;20027;-75
2021/09/27 07:35:03;;;;;;;13.63;6.63;;;17.10;99.90;;;;;;4994547;28;20029;-74
2021/09/27 07:37:30;;;;;;;11.93;6.50;;;17.10;99.90;;;;;;4976358;28;20033;-75
2021/09/27 07:39:56;;;;;;;14.00;6.82;;;17.20;99.90;;;;;;4993896;28;20035;-74
2021/09/27 07:42:21;;;;;;;14.48;6.47;;;17.30;99.90;;;;;;4993852;28;20022;-74
2021/09/27 07:44:47;;;;;;;14.18;6.40;;;17.30;99.90;;;;;;4994383;28;20014;-74
2021/09/27 07:47:13;;;;;;;15.20;6.45;;;17.40;99.90;;;;;;4976163;28;20506;-75
2021/09/27 07:49:39;;;;;;;15.13;6.53;;;17.50;99.90;;;;;;4993831;28;20026;-75
2021/09/27 07:52:06;;;;;;;10.80;6.22;;;17.50;99.90;;;;;;4993801;28;20023;-74
2021/09/27 07:54:31;;;;;;;14.80;6.75;;;17.60;99.90;;;;;;4993688;28;20030;-74
2021/09/27 07:56:58;;;;;;;13.55;5.95;;;17.60;99.90;;;;;;4993630;28;20053;-75
2021/09/27 07:59:24;;;;;;;13.35;6.95;;;17.60;99.90;;;;;;4976283;28;20026;-75
2021/09/27 08:01:50;;;;;;;12.35;6.53;;;17.60;99.90;;;;;;4993685;28;20076;-75
2021/09/27 08:04:17;;;;;;;15.25;6.80;;;17.70;99.90;;;;;;4975995;28;20034;-74
2021/09/27 08:06:43;;;;;;;14.82;6.32;;;17.70;99.90;;;;;;4993514;28;20026;-74
2021/09/27 08:09:09;;;;;;;14.40;6.75;;;17.70;99.90;;;;;;4995474;28;20050;-74
2021/09/27 08:11:40;;;;;;;10.23;5.63;;;17.80;99.90;;;;;;4997392;28;20076;-74
2021/09/27 08:14:05;;;;;;;10.23;5.65;;;17.80;99.90;;;;;;4997377;28;20026;-75
2021/09/27 08:16:31;;;;;;;10.45;5.90;;;17.90;99.90;;;;;;4997118;28;20498;-75
2021/09/27 08:18:57;;;;;;;10.98;5.35;;;18.00;99.90;;;;;;4979843;28;20117;-75
2021/09/27 08:21:24;;;;;;;14.63;6.75;;;18.10;99.90;;;;;;4979736;28;20027;-75
2021/09/27 08:23:50;;;;;;;10.70;6.03;;;18.10;99.90;;;;;;4979685;28;20391;-75
2021/09/27 08:26:19;;;;;;;14.93;6.70;;;18.20;99.90;;;;;;4979452;28;20026;-75
2021/09/27 08:28:45;;;;;;;11.38;5.60;;;18.30;99.90;;;;;;4996989;28;20030;-75
2021/09/27 08:31:19;;;;;;;9.73;5.45;;;18.40;99.90;;;;;;4997000;28;20546;-75
2021/09/27 08:33:46;;;;;;;10.95;5.22;;;18.40;99.90;;;;;;4979526;28;20034;-75
2021/09/27 08:36:14;;;;;;;11.75;5.70;;;18.40;99.90;;;;;;4979335;28;20030;-75
2021/09/27 08:38:40;;;;;;;13.45;6.10;;;18.40;99.90;;;;;;4997211;28;20382;-75
2021/09/27 08:41:21;;;;;;;11.93;6.10;;;18.40;99.90;;;;;;4996664;28;20027;-75
2021/09/27 08:44:06;;;;;;;19.25;5.28;;;18.30;99.90;;;;;;4997302;28;20050;-75
2021/09/27 08:46:41;;;;;;;13.48;5.53;;;18.30;99.90;;;;;;4996652;28;20026;-75
2021/09/27 08:49:38;;;;;;;11.07;5.93;;;18.30;99.90;;;;;;4996726;28;20026;-75
2021/09/27 08:52:07;;;;;;;10.00;5.75;;;18.40;99.90;;;;;;4979095;28;20030;-75
2021/09/27 08:54:34;;;;;;;10.77;5.18;;;18.40;99.90;;;;;;4996526;28;20019;-75
2021/09/27 08:57:10;;;;;;;11.75;4.85;;;18.40;99.90;;;;;;4978930;28;20125;-75
2021/09/27 09:00:01;;;;;;;11.82;5.25;;;18.50;99.90;;;;;;4997024;28;20023;-74
2021/09/27 09:02:44;;;;;;;14.05;6.40;;;18.50;99.90;;;;;;4996939;28;20018;-75
2021/09/27 09:05:32;;;;;;;9.25;5.03;;;18.60;99.90;;;;;;4996343;28;20030;-75
2021/09/27 09:08:33;;;;;;;9.50;5.18;;;18.60;99.90;;;;;;4978855;28;20038;-75
2021/09/27 09:11:28;;;;;;;8.63;5.00;;;18.70;99.90;;;;;;4994269;28;20030;-75
2021/09/27 09:14:09;;;;;;;7.07;4.32;;;18.80;99.90;;;;;;4996389;28;20019;-75
2021/09/27 09:16:35;;;;;;;8.85;4.47;;;19.00;99.90;;;;;;4996077;28;20023;-74
2021/09/27 09:19:05;;;;;;;7.68;4.40;;;19.30;99.90;;;;;;4996029;28;20030;-75
2021/09/27 09:21:39;;;;;;;7.03;3.78;;;19.50;99.90;;;;;;4978465;28;20029;-75
2021/09/27 09:24:12;;;;;;;6.22;3.72;;;19.60;99.90;;;;;;4996083;28;20030;-75
2021/09/27 09:26:40;;;;;;;6.35;3.45;;;19.70;99.90;;;;;;4995996;28;20026;-75
2021/09/27 09:29:08;;;;;;;6.78;3.35;;;19.60;99.90;;;;;;4996206;28;20034;-75
2021/09/27 09:31:44;;;;;;;5.38;3.78;;;19.70;99.90;;;;;;4978535;28;20487;-75
2021/09/27 09:34:22;;;;;;;6.28;3.03;;;19.70;99.90;;;;;;4978316;28;20037;-75
2021/09/27 09:36:54;;;;;;;7.82;3.35;;;19.70;99.90;;;;;;4978090;28;20386;-75
2021/09/27 09:39:24;;;;;;;6.38;3.20;;;19.70;99.90;;;;;;4996350;28;20034;-75
2021/09/27 09:41:54;;;;;;;5.57;3.17;;;19.60;99.90;;;;;;4978563;28;20083;-75
2021/09/27 09:44:35;;;;;;;7.68;2.88;;;19.70;99.90;;;;;;4995750;28;20026;-75
2021/09/27 09:47:03;;;;;;;4.75;2.97;;;19.60;99.90;;;;;;4995556;28;20026;-75
2021/09/27 09:49:47;;;;;;;5.72;3.17;;;19.70;99.90;;;;;;4995626;28;20037;-75
2021/09/27 09:52:36;;;;;;;4.82;2.65;;;19.70;99.90;;;;;;4978296;28;20028;-75
2021/09/27 09:55:17;;;;;;;4.75;2.70;;;19.70;99.90;;;;;;4995735;28;20034;-75
2021/09/27 09:57:53;;;;;;;4.43;2.47;;;19.70;99.90;;;;;;4995937;28;20463;-75
2021/09/27 10:00:41;;;;;;;6.20;2.97;;;19.60;99.90;;;;;;4995509;28;20027;-75
2021/09/27 10:03:09;;;;;;;5.50;2.77;;;19.60;99.90;;;;;;4995637;28;20121;-75
2021/09/27 10:05:41;;;;;;;5.38;1.92;;;19.70;99.90;;;;;;4995229;28;20050;-75
2021/09/27 10:08:16;;;;;;;4.68;2.10;;;19.60;99.90;;;;;;4995126;28;20029;-75
2021/09/27 10:10:52;;;;;;;5.50;2.10;;;19.70;99.90;;;;;;4995392;28;20510;-75
2021/09/27 10:13:38;;;;;;;3.15;1.50;;;19.70;99.90;;;;;;4995105;28;20034;-75
2021/09/27 10:16:13;;;;;;;4.03;1.42;;;19.70;99.90;;;;;;4995061;28;20030;-75
2021/09/27 10:18:41;;;;;;;3.55;1.65;;;19.70;99.90;;;;;;4977678;28;20090;-75
2021/09/27 10:21:18;;;;;;;3.17;2.00;;;19.80;99.90;;;;;;4994974;28;20022;-75
2021/09/27 10:23:50;;;;;;;5.38;1.77;;;19.90;99.90;;;;;;4995186;28;20018;-75
2021/09/27 10:26:30;;;;;;;2.85;1.38;;;20.00;99.90;;;;;;4994930;28;20077;-75
2021/09/27 10:29:08;;;;;;;3.40;1.70;;;20.10;99.90;;;;;;4977354;28;20038;-75
2021/09/27 10:31:37;;;;;;;4.13;1.73;;;20.20;99.90;;;;;;4976712;28;20100;-75
2021/09/27 10:34:20;;;;;;;4.50;1.85;;;20.20;99.90;;;;;;4994673;28;20030;-75
2021/09/27 10:36:51;;;;;;;2.80;1.63;;;20.30;99.90;;;;;;4994619;28;20048;-75
2021/09/27 10:39:19;;;;;;;5.20;1.55;;;20.30;99.90;;;;;;4994645;28;20041;-75
2021/09/27 10:41:54;;;;;;;;;;;20.30;99.90;;;;;;4995109;28;20395;-75
2021/09/27 10:44:22;;;;;;;6.35;1.35;;;20.30;99.90;;;;;;4995040;28;19937;-75
2021/09/27 10:46:52;;;;;;;2.60;1.20;;;20.30;99.90;;;;;;4994351;28;20037;-75
2021/09/27 10:49:31;;;;;;;3.08;0.90;;;20.30;99.90;;;;;;4994469;28;20085;-75
2021/09/27 10:52:31;;;;;;;3.70;1.15;;;20.30;99.90;;;;;;4994698;28;20045;-75
2021/09/27 10:55:13;;;;;;;1.70;1.13;;;20.40;99.90;;;;;;4987966;28;20038;-75
2021/09/27 10:57:49;;;;;;;1.60;0.98;;;20.30;99.90;;;;;;4976915;28;20030;-75
2021/09/27 11:00:17;;;;;;;4.90;0.70;;;20.30;99.90;;;;;;4994323;28;20026;-75
2021/09/27 11:02:49;;;;;;;1.63;1.10;;;20.40;99.90;;;;;;4994445;28;20027;-75
2021/09/27 11:05:34;;;;;;;2.40;1.10;;;20.30;99.90;;;;;;4994863;28;20480;-75
2021/09/27 11:08:09;;;;;;;3.85;0.82;;;20.30;99.90;;;;;;4994047;28;20069;-75
2021/09/27 11:10:50;;;;;;;3.00;0.98;;;20.30;99.90;;;;;;4976725;28;20548;-75
2021/09/27 11:13:38;;;;;;;3.50;0.90;;;20.20;99.90;;;;;;4976797;28;20025;-75
2021/09/27 11:16:28;;;;;;;8.27;2.00;;;20.20;99.90;;;;;;4994044;28;20037;-75
2021/09/27 11:18:58;;;;;;;2.42;1.05;;;20.10;99.90;;;;;;4994128;28;20476;-75
2021/09/27 11:21:46;;;;;;;5.93;1.30;;;20.20;99.90;;;;;;4994557;28;20050;-75
2021/09/27 11:24:13;;;;;;;1.60;0.82;;;20.20;99.90;;;;;;4994396;28;20022;-75
2021/09/27 11:26:46;;;;;;;1.65;0.82;;;20.20;99.90;;;;;;4994343;28;20494;-74
2021/09/27 11:29:44;;;;;;;2.40;0.65;;;20.30;99.90;;;;;;4994042;28;20058;-74
2021/09/27 11:32:16;;;;;;;3.65;1.05;;;20.30;99.90;;;;;;4994143;28;20022;-74
2021/09/27 11:34:52;;;;;;;4.65;1.30;;;20.40;99.90;;;;;;4976522;28;20105;-74
2021/09/27 11:37:26;;;;;;;1.13;0.93;;;20.50;99.90;;;;;;4994372;28;20491;-74
2021/09/27 11:40:30;;;;;;;2.92;0.73;;;20.60;99.90;;;;;;4993889;28;20030;-74
2021/09/27 11:43:33;;;;;;;2.35;0.85;;;20.70;99.90;;;;;;4979541;28;20031;-74
2021/09/27 11:46:07;;;;;;;2.38;0.73;;;20.90;99.90;;;;;;4998436;28;20034;-74
2021/09/27 11:48:43;;;;;;;5.38;0.65;;;21.00;99.90;;;;;;4980208;28;20041;-74
2021/09/27 11:51:09;;;;;;;1.80;0.73;;;20.90;99.90;;;;;;4997829;28;20097;-74
2021/09/27 11:54:02;;;;;;;2.85;0.98;;;20.90;99.90;;;;;;4997689;28;20041;-74
2021/09/27 11:56:34;;;;;;;0.93;0.45;;;21.00;99.90;;;;;;4980064;28;20022;-74
2021/09/27 11:59:14;;;;;;;4.60;0.75;;;21.10;99.90;;;;;;4997840;28;20023;-74
2021/09/27 12:02:13;;;;;;;1.75;0.95;;;21.30;99.90;;;;;;4998146;28;20057;-74
2021/09/27 12:05:01;;;;;;;1.98;0.43;;;21.50;99.90;;;;;;4997443;28;20101;-74
2021/09/27 12:07:36;;;;;;;1.07;0.53;;;21.60;99.90;;;;;;4998050;28;20031;-74
2021/09/27 12:10:25;;;;;;;1.17;0.52;;;21.80;99.90;;;;;;4980001;28;20324;-74
2021/09/27 12:12:55;;;;;;;3.97;0.20;;;22.00;99.90;;;;;;4992223;28;20039;-74
2021/09/27 12:15:30;;;;;;;1.70;0.43;;;22.10;99.90;;;;;;4979809;28;20034;-74
2021/09/27 12:17:55;;;;;;;0.63;0.25;;;22.10;99.90;;;;;;4980051;28;20109;-74
2021/09/27 12:20:39;;;;;;;0.63;0.43;;;22.00;99.90;;;;;;4997751;28;20053;-74
2021/09/27 12:23:09;;;;;;;2.60;0.17;;;22.00;99.90;;;;;;4997474;28;20093;-74
2021/09/27 12:25:40;;;;;;;0.57;0.10;;;22.10;99.90;;;;;;4997048;28;20022;-74
2021/09/27 12:28:11;;;;;;;1.17;0.13;;;22.00;99.90;;;;;;4979527;28;20027;-74
2021/09/27 12:30:53;;;;;;;1.08;0.20;;;22.00;99.90;;;;;;4997495;28;20034;-74
2021/09/27 12:33:25;;;;;;;0.75;0.10;;;21.60;99.90;;;;;;4997028;28;20483;-74
2021/09/27 12:36:05;;;;;;;1.23;0.08;;;21.50;99.90;;;;;;4997310;28;20023;-74
2021/09/27 12:38:32;;;;;;;4.55;0.10;;;21.40;99.90;;;;;;4979238;28;20446;-74
2021/09/27 12:40:59;;;;;;;0.50;0.10;;;21.30;99.90;;;;;;4996836;28;20021;-74
2021/09/27 12:43:31;;;;;;;0.10;0.00;;;21.20;99.90;;;;;;4996823;28;20031;-74
2021/09/27 12:46:18;;;;;;;4.38;0.95;;;21.10;99.90;;;;;;4996820;28;20590;-74
2021/09/27 12:48:49;;;;;;;0.50;0.10;;;21.00;99.90;;;;;;4979425;28;20037;-74
2021/09/27 12:51:26;;;;;;;0.55;0.13;;;20.90;99.90;;;;;;4979199;28;20113;-74
2021/09/27 12:54:24;;;;;;;1.52;0.00;;;20.70;99.90;;;;;;4978841;28;20030;-74
2021/09/27 12:56:53;;;;;;;3.22;0.20;;;20.60;99.90;;;;;;4996401;28;20030;-74
2021/09/27 12:59:24;;;;;;;0.30;0.00;;;20.30;99.90;;;;;;4979023;28;20026;-74
2021/09/27 13:01:58;;;;;;;1.08;0.10;;;20.10;99.90;;;;;;4996786;28;20023;-74
2021/09/27 13:04:43;;;;;;;3.35;0.17;;;19.90;99.90;;;;;;4996883;28;20057;-74
2021/09/27 13:07:16;;;;;;;1.48;0.30;;;19.70;99.90;;;;;;4978991;28;20098;-74
2021/09/27 13:10:05;;;;;;;0.55;0.20;;;19.60;99.90;;;;;;4978979;28;20046;-74
2021/09/27 13:12:36;;;;;;;1.95;0.38;;;19.50;99.90;;;;;;4978835;28;20085;-74
2021/09/27 13:15:18;;;;;;;0.98;0.22;;;19.40;99.90;;;;;;4979554;28;20034;-74
2021/09/27 13:18:21;;;;;;;1.80;0.30;;;19.20;99.90;;;;;;4996128;28;20034;-74
2021/09/27 13:20:59;;;;;;;2.72;0.57;;;19.20;99.90;;;;;;4978747;28;20045;-74
2021/09/27 13:23:36;;;;;;;0.80;0.30;;;19.20;99.90;;;;;;4996752;28;20026;-74
2021/09/27 13:26:04;;;;;;;0.50;0.20;;;19.10;99.90;;;;;;4978641;28;20498;-74
2021/09/27 13:28:39;;;;;;;3.15;0.30;;;19.00;99.90;;;;;;4995915;28;20019;-74
2021/09/27 13:31:12;;;;;;;1.55;0.43;;;19.00;99.90;;;;;;4978393;28;20113;-74
2021/09/27 13:33:41;;;;;;;1.17;0.35;;;18.90;99.90;;;;;;4978403;28;20034;-74
2021/09/27 13:36:28;;;;;;;2.65;0.50;;;18.80;99.90;;;;;;4996032;28;20022;-74